createdAt,value
2023-01-03T00:00:01.109Z,221.6
2023-01-03T00:05:01.228Z,194.2
2023-01-03T00:10:01.225Z,200.2
2023-01-03T00:15:07.189Z,201.0
2023-01-03T00:20:01.164Z,187.7
2023-01-03T00:25:01.227Z,190.4
2023-01-03T00:30:02.144Z,191.8
2023-01-03T00:35:04.936Z,179.6
2023-01-03T00:40:01.092Z,172.4
2023-01-03T00:45:01.226Z,176.5
2023-01-03T00:50:01.214Z,195.3
2023-01-03T00:55:01.238Z,199.8
2023-01-03T01:00:01.191Z,216.4
2023-01-03T01:05:01.159Z,206.9
2023-01-03T01:10:01.261Z,198.1
2023-01-03T01:15:01.221Z,177.2
2023-01-03T01:20:01.181Z,180.1
2023-01-03T01:25:06.261Z,192.8
2023-01-03T01:30:01.106Z,207.8
2023-01-03T01:35:01.153Z,214.1
2023-01-03T01:40:01.094Z,215.0
2023-01-03T01:45:01.272Z,228.1
2023-01-03T01:50:01.193Z,223.0
2023-01-03T01:55:01.223Z,217.4
2023-01-03T02:00:01.088Z,218.2
2023-01-03T02:05:01.243Z,245.2
2023-01-03T02:10:01.100Z,257.6
2023-01-03T02:15:01.180Z,289.0
2023-01-03T02:20:06.147Z,278.3
2023-01-03T02:40:01.659Z,196.4
2023-01-03T03:00:01.123Z,357.0
2023-01-03T03:05:01.131Z,276.0
2023-01-03T03:10:01.001Z,267.7
2023-01-03T03:15:01.071Z,251.6
2023-01-03T03:20:06.160Z,242.6
2023-01-03T03:25:01.020Z,216.5
2023-01-03T03:30:00.931Z,264.5
2023-01-03T03:35:01.015Z,257.1
2023-01-03T03:40:00.991Z,269.4
2023-01-03T03:45:01.517Z,270.5
2023-01-03T03:50:00.933Z,271.8
2023-01-03T03:55:01.308Z,258.1
2023-01-03T04:00:00.962Z,256.9
2023-01-03T04:05:06.033Z,256.6
2023-01-03T04:10:00.964Z,265.8
2023-01-03T04:15:01.023Z,256.7
2023-01-03T04:20:00.967Z,248.9
2023-01-03T04:25:01.384Z,250.6
2023-01-03T04:30:01.034Z,240.6
2023-01-03T04:35:01.005Z,234.7
2023-01-03T04:40:00.965Z,247.5
2023-01-03T04:45:01.197Z,230.5
2023-01-03T04:50:00.964Z,234.8
2023-01-03T04:55:06.043Z,246.5
2023-01-03T05:00:01.032Z,237.9
2023-01-03T05:05:01.037Z,231.9
2023-01-03T05:10:02.048Z,240.2
2023-01-03T05:15:01.129Z,227.5
2023-01-03T05:20:00.952Z,210.9
2023-01-03T05:25:01.044Z,212.3
2023-01-03T05:30:02.071Z,219.1
2023-01-03T05:35:01.089Z,209.6
2023-01-03T05:40:01.084Z,215.9
2023-01-03T05:45:01.131Z,221.1
2023-01-03T05:50:00.991Z,239.2
2023-01-03T05:55:01.221Z,226.0
2023-01-03T06:00:01.359Z,225.8
2023-01-03T06:05:06.114Z,238.2
2023-01-03T06:10:00.964Z,260.0
2023-01-03T06:15:01.649Z,251.6
2023-01-03T06:20:00.953Z,271.1
2023-01-03T06:25:02.028Z,286.8
2023-01-03T06:30:01.066Z,297.1
2023-01-03T06:35:01.040Z,290.4
2023-01-03T06:40:00.942Z,301.2
2023-01-03T06:45:01.093Z,302.6
2023-01-03T06:50:00.946Z,302.4
2023-01-03T06:55:01.112Z,297.7
2023-01-03T07:00:00.947Z,293.5
2023-01-03T07:05:01.387Z,290.2
2023-01-03T07:10:01.000Z,291.3
2023-01-03T07:15:01.130Z,305.4
2023-01-03T07:20:00.932Z,306.2
2023-01-03T07:25:01.063Z,309.2
2023-01-03T07:30:00.984Z,305.0
2023-01-03T07:35:02.052Z,298.8
2023-01-03T07:40:00.935Z,260.3
2023-01-03T07:45:01.006Z,243.1
2023-01-03T07:50:00.931Z,228.6
2023-01-03T07:55:01.112Z,220.8
2023-01-03T08:00:00.944Z,214.5
2023-01-03T08:05:01.052Z,226.0
2023-01-03T08:10:05.978Z,233.6
2023-01-03T08:15:01.149Z,238.4
2023-01-03T08:20:00.939Z,209.4
2023-01-03T08:25:01.002Z,203.6
2023-01-03T08:30:01.032Z,196.5
2023-01-03T08:35:01.039Z,179.3
2023-01-03T08:40:00.940Z,169.0
2023-01-03T08:45:01.003Z,215.2
2023-01-03T08:50:01.006Z,228.8
2023-01-03T08:55:01.115Z,223.1
2023-01-03T09:00:00.975Z,235.8
2023-01-03T09:05:01.076Z,236.0
2023-01-03T09:10:00.975Z,222.9
2023-01-03T09:15:01.077Z,200.6
2023-01-03T09:20:00.950Z,202.1
2023-01-03T09:25:01.116Z,186.3
2023-01-03T09:35:01.060Z,195.3
2023-01-03T09:40:00.995Z,186.9
2023-01-03T09:45:02.159Z,177.2
2023-01-03T10:10:03.321Z,162.8
2023-01-03T10:15:01.402Z,233.9
2023-01-03T10:20:01.212Z,238.8
2023-01-03T10:25:01.338Z,223.6
2023-01-03T10:30:06.229Z,217.6
2023-01-03T10:35:01.303Z,225.5
2023-01-03T10:50:01.002Z,279.2
2023-01-03T10:55:01.035Z,304.8
2023-01-03T11:00:00.979Z,296.6
2023-01-03T11:20:01.706Z,359.2
2023-01-03T11:25:01.575Z,304.6
2023-01-03T11:30:01.510Z,264.2
2023-01-03T12:00:01.362Z,206.0
2023-01-03T12:20:01.755Z,158.2
2023-01-03T12:25:05.349Z,172.3
2023-01-03T12:30:01.854Z,198.0
2023-01-03T12:35:01.686Z,200.4
2023-01-03T12:40:01.626Z,194.4
2023-01-03T12:45:01.667Z,202.8
2023-01-03T13:00:06.438Z,335.4
2023-01-03T13:20:00.936Z,284.6
2023-01-03T13:45:01.388Z,277.5
2023-01-03T14:00:00.855Z,102.6
2023-01-03T14:05:05.865Z,129.5
2023-01-03T14:20:01.240Z,249.0
2023-01-03T14:25:01.319Z,224.0
2023-01-03T14:30:01.163Z,219.8
2023-01-03T14:35:02.413Z,234.4
2023-01-03T14:40:01.253Z,265.8
2023-01-03T14:45:01.396Z,266.8
2023-01-03T14:50:01.300Z,305.1
2023-01-03T15:00:01.302Z,344.8
2023-01-03T15:05:01.659Z,382.0
2023-01-03T15:10:01.186Z,364.4
2023-01-03T15:15:01.298Z,405.7
2023-01-03T15:25:06.366Z,399.4
2023-01-03T15:30:10.477Z,411.3
2023-01-03T15:35:01.423Z,416.8
2023-01-03T15:40:06.234Z,426.7
2023-01-03T15:45:01.439Z,415.8
2023-01-03T15:50:01.308Z,424.0
2023-01-03T15:55:07.472Z,436.9
2023-01-03T16:00:01.228Z,415.8
2023-01-03T16:05:01.405Z,435.8
2023-01-03T16:10:01.265Z,463.0
2023-01-03T16:15:06.375Z,472.8
2023-01-03T16:20:01.271Z,366.8
2023-01-03T16:25:02.343Z,394.9
2023-01-03T16:30:01.276Z,408.1
2023-01-03T16:35:01.269Z,376.2
2023-01-03T16:40:01.510Z,384.9
2023-01-03T17:00:01.717Z,420.2
2023-01-03T17:05:00.967Z,274.0
2023-01-03T17:10:00.969Z,317.8
2023-01-03T17:15:06.048Z,329.3
2023-01-03T17:20:03.777Z,353.4
2023-01-03T17:25:00.953Z,364.2
2023-01-03T17:30:01.288Z,420.8
2023-01-03T17:35:01.033Z,436.7
2023-01-03T17:40:00.932Z,473.4
2023-01-03T17:45:02.017Z,487.0
2023-01-03T17:50:00.949Z,475.8
2023-01-03T17:55:00.971Z,498.6
2023-01-03T18:00:00.913Z,513.0
2023-01-03T18:05:22.928Z,476.2
2023-01-03T18:10:00.891Z,465.2
2023-01-03T18:15:06.057Z,500.0
2023-01-03T18:20:01.296Z,472.0
2023-01-03T18:25:00.946Z,460.9
2023-01-03T18:30:00.947Z,486.5
2023-01-03T18:35:00.976Z,501.0
2023-01-03T18:40:01.055Z,474.7
2023-01-03T18:45:01.018Z,491.8
2023-01-03T18:50:00.922Z,450.3
2023-01-03T18:55:01.099Z,415.6
2023-01-03T19:00:05.989Z,410.9
2023-01-03T19:05:01.050Z,375.0
2023-01-03T19:10:00.909Z,344.8
2023-01-03T19:30:01.914Z,258.0
2023-01-03T19:35:06.609Z,241.6
2023-01-03T19:40:01.531Z,245.8
2023-01-03T19:45:02.593Z,242.2
2023-01-03T20:00:01.350Z,191.4
2023-01-03T20:05:06.269Z,188.3
2023-01-03T20:10:01.071Z,188.6
2023-01-03T20:15:06.696Z,190.5
2023-01-03T20:30:00.901Z,235.4
2023-01-03T20:35:26.951Z,226.2
2023-01-03T20:40:01.865Z,216.1
2023-01-03T20:45:00.987Z,215.4
2023-01-03T20:50:00.756Z,211.8
2023-01-03T20:55:00.912Z,217.0
2023-01-03T21:00:00.842Z,206.4
2023-01-03T21:05:00.784Z,205.4
2023-01-03T21:10:00.774Z,199.6
2023-01-03T21:15:00.985Z,196.2
2023-01-03T21:20:00.761Z,179.0
2023-01-03T21:25:00.948Z,193.0
2023-01-03T21:30:00.895Z,208.3
2023-01-03T21:35:01.989Z,199.9
2023-01-03T21:40:00.971Z,259.0
2023-01-03T21:45:01.041Z,252.4
2023-01-03T21:50:00.889Z,238.2
2023-01-03T21:55:00.816Z,219.7
2023-01-03T22:00:00.743Z,226.5
2023-01-03T22:05:05.837Z,182.1
2023-01-03T22:10:00.729Z,176.4
2023-01-03T22:15:00.928Z,174.6
2023-01-03T22:20:05.931Z,162.8
2023-01-03T22:25:00.802Z,184.0
2023-01-03T22:30:01.043Z,164.1
2023-01-03T22:35:00.835Z,173.1
2023-01-03T22:40:00.719Z,172.4
2023-01-03T22:45:00.839Z,187.8
2023-01-03T22:50:00.735Z,153.7
2023-01-03T22:55:01.078Z,147.6
2023-01-03T23:00:00.717Z,140.8
2023-01-03T23:05:00.874Z,136.6
2023-01-03T23:10:00.712Z,123.0
2023-01-03T23:15:00.895Z,126.4
2023-01-03T23:20:00.714Z,127.9
2023-01-03T23:25:00.952Z,127.7
2023-01-03T23:30:00.901Z,128.9
2023-01-03T23:35:00.851Z,130.7
2023-01-03T23:40:00.747Z,132.5
2023-01-03T23:45:00.832Z,135.7
2023-01-03T23:50:00.782Z,141.8
2023-01-03T23:55:05.199Z,141.7
